sensor_id;sensor_type;location;lat;lon;timestamp;temperature;humidity
7117;DHT22;3600;48.568;7.870;2023-03-14T00:01:31;11.80;99.90
7117;DHT22;3600;48.568;7.870;2023-03-14T00:03:58;11.80;99.90
7117;DHT22;3600;48.568;7.870;2023-03-14T00:06:26;11.80;99.90
7117;DHT22;3600;48.568;7.870;2023-03-14T00:08:53;11.80;99.90
7117;DHT22;3600;48.568;7.870;2023-03-14T00:11:24;11.80;99.90
7117;DHT22;3600;48.568;7.870;2023-03-14T00:13:53;11.70;99.90
7117;DHT22;3600;48.568;7.870;2023-03-14T00:16:20;11.70;99.90
7117;DHT22;3600;48.568;7.870;2023-03-14T00:18:47;11.70;99.90
7117;DHT22;3600;48.568;7.870;2023-03-14T00:21:14;11.70;99.90
7117;DHT22;3600;48.568;7.870;2023-03-14T00:23:42;11.70;99.90
7117;DHT22;3600;48.568;7.870;2023-03-14T00:26:14;11.70;99.90
7117;DHT22;3600;48.568;7.870;2023-03-14T00:28:42;11.70;99.90
7117;DHT22;3600;48.568;7.870;2023-03-14T00:31:12;11.70;99.90
7117;DHT22;3600;48.568;7.870;2023-03-14T00:33:40;11.70;99.90
7117;DHT22;3600;48.568;7.870;2023-03-14T00:36:09;11.70;99.90
7117;DHT22;3600;48.568;7.870;2023-03-14T00:38:38;11.70;99.90
7117;DHT22;3600;48.568;7.870;2023-03-14T00:41:08;11.70;99.90
7117;DHT22;3600;48.568;7.870;2023-03-14T00:43:35;11.70;99.90
7117;DHT22;3600;48.568;7.870;2023-03-14T00:46:03;11.70;99.90
7117;DHT22;3600;48.568;7.870;2023-03-14T00:48:30;11.70;99.90
7117;DHT22;3600;48.568;7.870;2023-03-14T00:50:57;11.70;99.90
7117;DHT22;3600;48.568;7.870;2023-03-14T00:53:23;11.70;99.90
7117;DHT22;3600;48.568;7.870;2023-03-14T00:55:50;11.70;99.90
7117;DHT22;3600;48.568;7.870;2023-03-14T00:58:17;11.70;99.90
7117;DHT22;3600;48.568;7.870;2023-03-14T01:00:45;11.70;99.90
7117;DHT22;3600;48.568;7.870;2023-03-14T01:03:15;11.70;99.90
7117;DHT22;3600;48.568;7.870;2023-03-14T01:05:42;11.70;99.90
7117;DHT22;3600;48.568;7.870;2023-03-14T01:08:09;11.70;99.90
7117;DHT22;3600;48.568;7.870;2023-03-14T01:10:40;11.60;99.90
7117;DHT22;3600;48.568;7.870;2023-03-14T01:13:08;11.60;99.90
7117;DHT22;3600;48.568;7.870;2023-03-14T01:15:36;11.70;99.90
7117;DHT22;3600;48.568;7.870;2023-03-14T01:18:03;11.60;99.90
7117;DHT22;3600;48.568;7.870;2023-03-14T01:20:33;11.60;99.90
7117;DHT22;3600;48.568;7.870;2023-03-14T01:23:00;11.60;99.90
7117;DHT22;3600;48.568;7.870;2023-03-14T01:25:27;11.60;99.90
7117;DHT22;3600;48.568;7.870;2023-03-14T01:27:53;11.60;99.90
7117;DHT22;3600;48.568;7.870;2023-03-14T01:30:20;11.60;99.90
7117;DHT22;3600;48.568;7.870;2023-03-14T01:32:47;11.60;99.90
7117;DHT22;3600;48.568;7.870;2023-03-14T01:35:14;11.60;99.90
7117;DHT22;3600;48.568;7.870;2023-03-14T01:37:41;11.50;99.90
7117;DHT22;3600;48.568;7.870;2023-03-14T01:40:10;11.50;99.90
7117;DHT22;3600;48.568;7.870;2023-03-14T01:42:38;11.50;99.90
7117;DHT22;3600;48.568;7.870;2023-03-14T01:45:05;11.50;99.90
7117;DHT22;3600;48.568;7.870;2023-03-14T01:47:32;11.50;99.90
7117;DHT22;3600;48.568;7.870;2023-03-14T01:50:04;11.40;99.90
7117;DHT22;3600;48.568;7.870;2023-03-14T01:52:37;11.40;99.90
7117;DHT22;3600;48.568;7.870;2023-03-14T01:55:21;11.40;99.90
7117;DHT22;3600;48.568;7.870;2023-03-14T01:57:52;11.40;99.90
7117;DHT22;3600;48.568;7.870;2023-03-14T02:00:21;11.40;99.90
7117;DHT22;3600;48.568;7.870;2023-03-14T02:03:01;11.40;99.90
7117;DHT22;3600;48.568;7.870;2023-03-14T02:05:32;11.40;99.90
7117;DHT22;3600;48.568;7.870;2023-03-14T02:08:02;11.40;99.90
7117;DHT22;3600;48.568;7.870;2023-03-14T02:10:33;11.30;99.90
7117;DHT22;3600;48.568;7.870;2023-03-14T02:13:03;11.30;99.90
7117;DHT22;3600;48.568;7.870;2023-03-14T02:15:30;11.30;99.90
7117;DHT22;3600;48.568;7.870;2023-03-14T02:17:58;11.30;99.90
7117;DHT22;3600;48.568;7.870;2023-03-14T02:20:48;11.30;99.90
7117;DHT22;3600;48.568;7.870;2023-03-14T02:23:39;11.30;99.90
7117;DHT22;3600;48.568;7.870;2023-03-14T02:26:36;11.30;99.90
7117;DHT22;3600;48.568;7.870;2023-03-14T02:29:01;11.30;99.90
7117;DHT22;3600;48.568;7.870;2023-03-14T02:31:27;11.20;99.90
7117;DHT22;3600;48.568;7.870;2023-03-14T02:33:55;11.20;99.90
7117;DHT22;3600;48.568;7.870;2023-03-14T02:36:23;11.20;99.90
7117;DHT22;3600;48.568;7.870;2023-03-14T02:39:06;11.20;99.90
7117;DHT22;3600;48.568;7.870;2023-03-14T02:41:37;11.20;99.90
7117;DHT22;3600;48.568;7.870;2023-03-14T02:44:04;11.20;99.90
7117;DHT22;3600;48.568;7.870;2023-03-14T02:46:31;11.20;99.90
7117;DHT22;3600;48.568;7.870;2023-03-14T02:49:02;11.20;99.90
7117;DHT22;3600;48.568;7.870;2023-03-14T02:51:29;11.20;99.90
7117;DHT22;3600;48.568;7.870;2023-03-14T02:53:56;11.20;99.90
7117;DHT22;3600;48.568;7.870;2023-03-14T02:56:23;11.30;99.90
7117;DHT22;3600;48.568;7.870;2023-03-14T02:58:50;11.30;99.90
7117;DHT22;3600;48.568;7.870;2023-03-14T03:01:17;11.30;99.90
7117;DHT22;3600;48.568;7.870;2023-03-14T03:03:44;11.20;99.90
7117;DHT22;3600;48.568;7.870;2023-03-14T03:06:11;11.20;99.90
7117;DHT22;3600;48.568;7.870;2023-03-14T03:08:38;11.20;99.90
7117;DHT22;3600;48.568;7.870;2023-03-14T03:11:06;11.20;99.90
7117;DHT22;3600;48.568;7.870;2023-03-14T03:13:33;11.20;99.90
7117;DHT22;3600;48.568;7.870;2023-03-14T03:16:00;11.20;99.90
7117;DHT22;3600;48.568;7.870;2023-03-14T03:18:27;11.20;99.90
7117;DHT22;3600;48.568;7.870;2023-03-14T03:20:54;11.20;99.90
7117;DHT22;3600;48.568;7.870;2023-03-14T03:23:21;11.20;99.90
7117;DHT22;3600;48.568;7.870;2023-03-14T03:25:51;11.20;99.90
7117;DHT22;3600;48.568;7.870;2023-03-14T03:28:18;11.20;99.90
7117;DHT22;3600;48.568;7.870;2023-03-14T03:30:45;11.20;99.90
7117;DHT22;3600;48.568;7.870;2023-03-14T03:33:12;11.20;99.90
7117;DHT22;3600;48.568;7.870;2023-03-14T03:35:48;11.10;99.90
7117;DHT22;3600;48.568;7.870;2023-03-14T03:38:16;11.10;99.90
7117;DHT22;3600;48.568;7.870;2023-03-14T03:40:43;11.10;99.90
7117;DHT22;3600;48.568;7.870;2023-03-14T03:43:09;11.10;99.90
7117;DHT22;3600;48.568;7.870;2023-03-14T03:45:36;11.10;99.90
7117;DHT22;3600;48.568;7.870;2023-03-14T03:48:03;11.10;99.90
7117;DHT22;3600;48.568;7.870;2023-03-14T03:50:30;11.10;99.90
7117;DHT22;3600;48.568;7.870;2023-03-14T03:52:57;11.10;99.90
7117;DHT22;3600;48.568;7.870;2023-03-14T03:55:24;11.00;99.90
7117;DHT22;3600;48.568;7.870;2023-03-14T03:57:52;11.10;99.90
7117;DHT22;3600;48.568;7.870;2023-03-14T04:00:19;11.10;99.90
7117;DHT22;3600;48.568;7.870;2023-03-14T04:02:45;11.10;99.90
7117;DHT22;3600;48.568;7.870;2023-03-14T04:05:12;11.00;99.90
7117;DHT22;3600;48.568;7.870;2023-03-14T04:07:39;11.00;99.90
7117;DHT22;3600;48.568;7.870;2023-03-14T04:10:06;11.00;99.90
7117;DHT22;3600;48.568;7.870;2023-03-14T04:12:33;11.00;99.90
7117;DHT22;3600;48.568;7.870;2023-03-14T04:15:00;11.00;99.90
7117;DHT22;3600;48.568;7.870;2023-03-14T04:17:27;11.00;99.90
7117;DHT22;3600;48.568;7.870;2023-03-14T04:19:53;11.00;99.90
7117;DHT22;3600;48.568;7.870;2023-03-14T04:22:20;11.00;99.90
7117;DHT22;3600;48.568;7.870;2023-03-14T04:24:47;11.00;99.90
7117;DHT22;3600;48.568;7.870;2023-03-14T04:27:14;11.00;99.90
7117;DHT22;3600;48.568;7.870;2023-03-14T04:29:42;11.00;99.90
7117;DHT22;3600;48.568;7.870;2023-03-14T04:32:09;11.00;99.90
7117;DHT22;3600;48.568;7.870;2023-03-14T04:34:36;11.00;99.90
7117;DHT22;3600;48.568;7.870;2023-03-14T04:37:03;11.00;99.90
7117;DHT22;3600;48.568;7.870;2023-03-14T04:39:30;11.00;99.90
7117;DHT22;3600;48.568;7.870;2023-03-14T04:41:56;11.00;99.90
7117;DHT22;3600;48.568;7.870;2023-03-14T04:44:23;11.00;99.90
7117;DHT22;3600;48.568;7.870;2023-03-14T04:46:50;11.00;99.90
7117;DHT22;3600;48.568;7.870;2023-03-14T04:49:17;10.90;99.90
7117;DHT22;3600;48.568;7.870;2023-03-14T04:51:43;11.00;99.90
7117;DHT22;3600;48.568;7.870;2023-03-14T04:54:10;11.00;99.90
7117;DHT22;3600;48.568;7.870;2023-03-14T04:56:37;11.00;99.90
7117;DHT22;3600;48.568;7.870;2023-03-14T04:59:04;11.00;99.90
7117;DHT22;3600;48.568;7.870;2023-03-14T05:01:31;11.00;99.90
7117;DHT22;3600;48.568;7.870;2023-03-14T05:03:58;10.90;99.90
7117;DHT22;3600;48.568;7.870;2023-03-14T05:06:25;10.90;99.90
7117;DHT22;3600;48.568;7.870;2023-03-14T05:08:52;10.90;99.90
7117;DHT22;3600;48.568;7.870;2023-03-14T05:11:18;10.90;99.90
7117;DHT22;3600;48.568;7.870;2023-03-14T05:13:45;10.90;99.90
7117;DHT22;3600;48.568;7.870;2023-03-14T05:16:12;10.90;99.90
7117;DHT22;3600;48.568;7.870;2023-03-14T05:18:39;10.90;99.90
7117;DHT22;3600;48.568;7.870;2023-03-14T05:21:06;10.90;99.90
7117;DHT22;3600;48.568;7.870;2023-03-14T05:23:32;10.90;99.90
7117;DHT22;3600;48.568;7.870;2023-03-14T05:25:59;10.90;99.90
7117;DHT22;3600;48.568;7.870;2023-03-14T05:28:26;10.90;99.90
7117;DHT22;3600;48.568;7.870;2023-03-14T05:30:53;10.90;99.90
7117;DHT22;3600;48.568;7.870;2023-03-14T05:33:20;10.80;99.90
7117;DHT22;3600;48.568;7.870;2023-03-14T05:35:46;10.80;99.90
7117;DHT22;3600;48.568;7.870;2023-03-14T05:38:13;10.90;99.90
7117;DHT22;3600;48.568;7.870;2023-03-14T05:40:40;10.90;99.90
7117;DHT22;3600;48.568;7.870;2023-03-14T05:43:08;10.90;99.90
7117;DHT22;3600;48.568;7.870;2023-03-14T05:45:35;10.80;99.90
7117;DHT22;3600;48.568;7.870;2023-03-14T05:48:02;10.90;99.90
7117;DHT22;3600;48.568;7.870;2023-03-14T05:50:29;10.90;99.90
7117;DHT22;3600;48.568;7.870;2023-03-14T05:52:56;10.90;99.90
7117;DHT22;3600;48.568;7.870;2023-03-14T05:55:23;10.90;99.90
7117;DHT22;3600;48.568;7.870;2023-03-14T05:57:50;10.90;99.90
7117;DHT22;3600;48.568;7.870;2023-03-14T06:00:17;10.80;99.90
7117;DHT22;3600;48.568;7.870;2023-03-14T06:02:44;10.80;99.90
7117;DHT22;3600;48.568;7.870;2023-03-14T06:05:11;10.90;99.90
7117;DHT22;3600;48.568;7.870;2023-03-14T06:07:38;10.80;99.90
7117;DHT22;3600;48.568;7.870;2023-03-14T06:10:05;10.80;99.90
7117;DHT22;3600;48.568;7.870;2023-03-14T06:12:32;10.80;99.90
7117;DHT22;3600;48.568;7.870;2023-03-14T06:14:59;10.80;99.90
7117;DHT22;3600;48.568;7.870;2023-03-14T06:17:26;10.80;99.90
7117;DHT22;3600;48.568;7.870;2023-03-14T06:19:52;10.80;99.90
7117;DHT22;3600;48.568;7.870;2023-03-14T06:22:19;10.80;99.90
7117;DHT22;3600;48.568;7.870;2023-03-14T06:24:46;10.90;99.90
7117;DHT22;3600;48.568;7.870;2023-03-14T06:27:13;10.90;99.90
7117;DHT22;3600;48.568;7.870;2023-03-14T06:29:40;10.90;99.90
7117;DHT22;3600;48.568;7.870;2023-03-14T06:32:06;10.90;99.90
7117;DHT22;3600;48.568;7.870;2023-03-14T06:34:33;10.90;99.90
7117;DHT22;3600;48.568;7.870;2023-03-14T06:37:00;10.90;99.90
7117;DHT22;3600;48.568;7.870;2023-03-14T06:39:27;11.00;99.90
7117;DHT22;3600;48.568;7.870;2023-03-14T06:41:53;11.00;99.90
7117;DHT22;3600;48.568;7.870;2023-03-14T06:44:20;11.00;99.90
7117;DHT22;3600;48.568;7.870;2023-03-14T06:46:47;11.00;99.90
7117;DHT22;3600;48.568;7.870;2023-03-14T06:49:14;11.00;99.90
7117;DHT22;3600;48.568;7.870;2023-03-14T06:51:40;11.00;99.90
7117;DHT22;3600;48.568;7.870;2023-03-14T06:54:07;11.10;99.90
7117;DHT22;3600;48.568;7.870;2023-03-14T06:56:34;11.10;99.90
7117;DHT22;3600;48.568;7.870;2023-03-14T06:59:01;11.10;99.90
7117;DHT22;3600;48.568;7.870;2023-03-14T07:01:30;11.10;99.90
7117;DHT22;3600;48.568;7.870;2023-03-14T07:03:57;11.10;99.90
7117;DHT22;3600;48.568;7.870;2023-03-14T07:06:24;11.10;99.90
7117;DHT22;3600;48.568;7.870;2023-03-14T07:08:51;11.10;99.90
7117;DHT22;3600;48.568;7.870;2023-03-14T07:11:18;11.10;99.90
7117;DHT22;3600;48.568;7.870;2023-03-14T07:13:45;11.10;99.90
7117;DHT22;3600;48.568;7.870;2023-03-14T07:16:11;11.20;99.90
7117;DHT22;3600;48.568;7.870;2023-03-14T07:18:38;11.20;99.90
7117;DHT22;3600;48.568;7.870;2023-03-14T07:21:08;11.20;99.90
7117;DHT22;3600;48.568;7.870;2023-03-14T07:23:35;11.20;99.90
7117;DHT22;3600;48.568;7.870;2023-03-14T07:26:02;11.30;99.90
7117;DHT22;3600;48.568;7.870;2023-03-14T07:28:29;11.20;99.90
7117;DHT22;3600;48.568;7.870;2023-03-14T07:30:56;11.30;99.90
7117;DHT22;3600;48.568;7.870;2023-03-14T07:33:23;11.30;99.90
7117;DHT22;3600;48.568;7.870;2023-03-14T07:35:50;11.30;99.90
7117;DHT22;3600;48.568;7.870;2023-03-14T07:38:17;11.40;99.90
7117;DHT22;3600;48.568;7.870;2023-03-14T07:40:46;11.40;99.90
7117;DHT22;3600;48.568;7.870;2023-03-14T07:43:13;11.50;99.90
7117;DHT22;3600;48.568;7.870;2023-03-14T07:45:40;11.50;99.90
7117;DHT22;3600;48.568;7.870;2023-03-14T07:48:08;11.60;99.90
7117;DHT22;3600;48.568;7.870;2023-03-14T07:50:36;11.60;99.90
7117;DHT22;3600;48.568;7.870;2023-03-14T07:53:03;11.70;99.90
7117;DHT22;3600;48.568;7.870;2023-03-14T07:55:30;11.70;99.90
7117;DHT22;3600;48.568;7.870;2023-03-14T07:57:56;11.70;99.90
7117;DHT22;3600;48.568;7.870;2023-03-14T08:00:23;11.70;99.90
7117;DHT22;3600;48.568;7.870;2023-03-14T08:02:52;11.80;99.90
7117;DHT22;3600;48.568;7.870;2023-03-14T08:05:19;11.80;99.90
7117;DHT22;3600;48.568;7.870;2023-03-14T08:07:46;11.80;99.90
7117;DHT22;3600;48.568;7.870;2023-03-14T08:10:13;11.80;99.90
7117;DHT22;3600;48.568;7.870;2023-03-14T08:12:51;11.80;99.90
7117;DHT22;3600;48.568;7.870;2023-03-14T08:15:18;11.90;99.90
7117;DHT22;3600;48.568;7.870;2023-03-14T08:17:44;12.00;99.90
7117;DHT22;3600;48.568;7.870;2023-03-14T08:20:11;12.00;99.90
7117;DHT22;3600;48.568;7.870;2023-03-14T08:22:39;12.00;99.90
7117;DHT22;3600;48.568;7.870;2023-03-14T08:25:06;12.00;99.90
7117;DHT22;3600;48.568;7.870;2023-03-14T08:27:33;12.10;99.90
7117;DHT22;3600;48.568;7.870;2023-03-14T08:30:00;12.10;99.90
7117;DHT22;3600;48.568;7.870;2023-03-14T08:32:27;12.10;99.90
7117;DHT22;3600;48.568;7.870;2023-03-14T08:34:54;12.10;99.90
7117;DHT22;3600;48.568;7.870;2023-03-14T08:37:20;12.10;99.90
7117;DHT22;3600;48.568;7.870;2023-03-14T08:39:52;12.10;99.90
7117;DHT22;3600;48.568;7.870;2023-03-14T08:42:19;12.10;99.90
7117;DHT22;3600;48.568;7.870;2023-03-14T08:44:46;12.20;99.90
7117;DHT22;3600;48.568;7.870;2023-03-14T08:47:13;12.20;99.90
7117;DHT22;3600;48.568;7.870;2023-03-14T08:49:40;12.20;99.90
7117;DHT22;3600;48.568;7.870;2023-03-14T08:52:07;12.20;99.90
7117;DHT22;3600;48.568;7.870;2023-03-14T08:54:34;12.20;99.90
7117;DHT22;3600;48.568;7.870;2023-03-14T08:57:01;12.20;99.90
7117;DHT22;3600;48.568;7.870;2023-03-14T08:59:27;12.30;99.90
7117;DHT22;3600;48.568;7.870;2023-03-14T09:01:54;12.30;99.90
7117;DHT22;3600;48.568;7.870;2023-03-14T09:04:21;12.40;99.90
7117;DHT22;3600;48.568;7.870;2023-03-14T09:06:48;12.40;99.90
7117;DHT22;3600;48.568;7.870;2023-03-14T09:09:15;12.40;99.90
7117;DHT22;3600;48.568;7.870;2023-03-14T09:11:42;12.50;99.90
7117;DHT22;3600;48.568;7.870;2023-03-14T09:14:08;12.40;99.90
7117;DHT22;3600;48.568;7.870;2023-03-14T09:16:35;12.50;99.90
7117;DHT22;3600;48.568;7.870;2023-03-14T09:19:02;12.60;99.90
7117;DHT22;3600;48.568;7.870;2023-03-14T09:21:29;12.60;99.90
7117;DHT22;3600;48.568;7.870;2023-03-14T09:23:56;12.70;99.90
7117;DHT22;3600;48.568;7.870;2023-03-14T09:26:22;12.70;99.90
7117;DHT22;3600;48.568;7.870;2023-03-14T09:28:49;12.70;99.90
7117;DHT22;3600;48.568;7.870;2023-03-14T09:31:17;12.50;99.90
7117;DHT22;3600;48.568;7.870;2023-03-14T09:33:44;12.40;99.90
7117;DHT22;3600;48.568;7.870;2023-03-14T09:36:11;12.40;99.90
7117;DHT22;3600;48.568;7.870;2023-03-14T09:38:38;12.30;99.90
7117;DHT22;3600;48.568;7.870;2023-03-14T09:41:17;12.10;99.90
7117;DHT22;3600;48.568;7.870;2023-03-14T09:43:46;12.00;99.90
7117;DHT22;3600;48.568;7.870;2023-03-14T09:46:17;12.00;99.90
7117;DHT22;3600;48.568;7.870;2023-03-14T09:48:45;11.90;99.90
7117;DHT22;3600;48.568;7.870;2023-03-14T09:51:17;11.80;99.90
7117;DHT22;3600;48.568;7.870;2023-03-14T09:53:48;11.70;99.90
7117;DHT22;3600;48.568;7.870;2023-03-14T09:56:25;11.60;99.90
7117;DHT22;3600;48.568;7.870;2023-03-14T09:59:00;11.60;99.90
7117;DHT22;3600;48.568;7.870;2023-03-14T10:01:32;11.50;99.90
7117;DHT22;3600;48.568;7.870;2023-03-14T10:04:04;11.50;99.90
7117;DHT22;3600;48.568;7.870;2023-03-14T10:06:32;11.40;99.90
7117;DHT22;3600;48.568;7.870;2023-03-14T10:08:59;11.30;99.90
7117;DHT22;3600;48.568;7.870;2023-03-14T10:11:26;11.40;99.90
7117;DHT22;3600;48.568;7.870;2023-03-14T10:14:05;11.30;99.90
7117;DHT22;3600;48.568;7.870;2023-03-14T10:16:36;11.30;99.90
7117;DHT22;3600;48.568;7.870;2023-03-14T10:19:11;11.20;99.90
7117;DHT22;3600;48.568;7.870;2023-03-14T10:21:43;11.20;99.90
7117;DHT22;3600;48.568;7.870;2023-03-14T10:24:27;11.20;99.90
7117;DHT22;3600;48.568;7.870;2023-03-14T10:29:31;11.10;99.90
7117;DHT22;3600;48.568;7.870;2023-03-14T10:32:06;11.10;99.90
7117;DHT22;3600;48.568;7.870;2023-03-14T10:34:38;11.20;99.90
7117;DHT22;3600;48.568;7.870;2023-03-14T10:37:18;11.20;99.90
7117;DHT22;3600;48.568;7.870;2023-03-14T10:39:49;11.20;99.90
7117;DHT22;3600;48.568;7.870;2023-03-14T10:42:25;11.20;99.90
7117;DHT22;3600;48.568;7.870;2023-03-14T10:44:58;11.20;99.90
7117;DHT22;3600;48.568;7.870;2023-03-14T10:47:27;11.20;99.90
7117;DHT22;3600;48.568;7.870;2023-03-14T10:49:56;11.10;99.90
7117;DHT22;3600;48.568;7.870;2023-03-14T10:52:28;11.00;99.90
7117;DHT22;3600;48.568;7.870;2023-03-14T10:55:12;10.90;99.90
7117;DHT22;3600;48.568;7.870;2023-03-14T10:57:43;10.90;99.90
7117;DHT22;3600;48.568;7.870;2023-03-14T11:00:19;10.90;99.90
7117;DHT22;3600;48.568;7.870;2023-03-14T11:05:49;10.90;99.90
7117;DHT22;3600;48.568;7.870;2023-03-14T11:08:27;10.80;99.90
7117;DHT22;3600;48.568;7.870;2023-03-14T11:11:14;10.70;99.90
7117;DHT22;3600;48.568;7.870;2023-03-14T11:16:53;10.90;99.90
7117;DHT22;3600;48.568;7.870;2023-03-14T11:19:38;11.10;99.90
7117;DHT22;3600;48.568;7.870;2023-03-14T11:22:20;11.10;99.90
7117;DHT22;3600;48.568;7.870;2023-03-14T11:28:12;10.90;99.90
7117;DHT22;3600;48.568;7.870;2023-03-14T11:30:50;10.80;99.90
7117;DHT22;3600;48.568;7.870;2023-03-14T11:36:11;10.70;99.90
7117;DHT22;3600;48.568;7.870;2023-03-14T11:38:57;10.70;99.90
7117;DHT22;3600;48.568;7.870;2023-03-14T11:41:39;10.70;99.90
7117;DHT22;3600;48.568;7.870;2023-03-14T11:44:22;10.80;99.90
7117;DHT22;3600;48.568;7.870;2023-03-14T11:49:36;10.70;99.90
7117;DHT22;3600;48.568;7.870;2023-03-14T11:52:12;10.60;99.90
7117;DHT22;3600;48.568;7.870;2023-03-14T11:54:44;10.60;99.90
7117;DHT22;3600;48.568;7.870;2023-03-14T11:57:18;10.70;99.90
7117;DHT22;3600;48.568;7.870;2023-03-14T11:59:52;10.70;99.90
7117;DHT22;3600;48.568;7.870;2023-03-14T12:03:07;10.80;99.90
7117;DHT22;3600;48.568;7.870;2023-03-14T12:05:45;10.80;99.90
7117;DHT22;3600;48.568;7.870;2023-03-14T12:08:19;10.90;99.90
7117;DHT22;3600;48.568;7.870;2023-03-14T12:10:52;10.90;99.90
7117;DHT22;3600;48.568;7.870;2023-03-14T12:13:21;10.90;99.90
7117;DHT22;3600;48.568;7.870;2023-03-14T12:15:59;10.80;99.90
7117;DHT22;3600;48.568;7.870;2023-03-14T12:18:32;10.70;99.90
7117;DHT22;3600;48.568;7.870;2023-03-14T12:21:11;10.70;99.70
7117;DHT22;3600;48.568;7.870;2023-03-14T12:26:26;10.70;99.90
7117;DHT22;3600;48.568;7.870;2023-03-14T12:45:31;10.40;99.40
7117;DHT22;3600;48.568;7.870;2023-03-14T12:48:25;10.30;98.30
7117;DHT22;3600;48.568;7.870;2023-03-14T12:51:00;10.30;99.10
7117;DHT22;3600;48.568;7.870;2023-03-14T12:59:56;10.30;97.50
7117;DHT22;3600;48.568;7.870;2023-03-14T13:02:02;10.40;98.50
7117;DHT22;3600;48.568;7.870;2023-03-14T13:04:43;10.30;97.70
7117;DHT22;3600;48.568;7.870;2023-03-14T13:07:12;10.40;98.10
7117;DHT22;3600;48.568;7.870;2023-03-14T13:09:53;10.40;97.90
7117;DHT22;3600;48.568;7.870;2023-03-14T13:12:25;10.30;97.00
7117;DHT22;3600;48.568;7.870;2023-03-14T13:14:54;10.30;97.30
7117;DHT22;3600;48.568;7.870;2023-03-14T13:17:31;10.30;96.20
7117;DHT22;3600;48.568;7.870;2023-03-14T13:20:15;10.30;96.90
7117;DHT22;3600;48.568;7.870;2023-03-14T13:22:47;10.30;97.40
7117;DHT22;3600;48.568;7.870;2023-03-14T13:25:14;10.30;97.40
7117;DHT22;3600;48.568;7.870;2023-03-14T13:27:43;10.30;97.30
7117;DHT22;3600;48.568;7.870;2023-03-14T13:30:17;10.50;97.30
7117;DHT22;3600;48.568;7.870;2023-03-14T13:32:46;10.60;97.20
7117;DHT22;3600;48.568;7.870;2023-03-14T13:35:29;10.60;95.80
7117;DHT22;3600;48.568;7.870;2023-03-14T13:37:59;10.50;95.50
7117;DHT22;3600;48.568;7.870;2023-03-14T13:40:43;10.60;95.60
7117;DHT22;3600;48.568;7.870;2023-03-14T13:48:15;10.80;95.90
7117;DHT22;3600;48.568;7.870;2023-03-14T13:50:49;11.00;95.30
7117;DHT22;3600;48.568;7.870;2023-03-14T13:53:17;10.90;95.80
7117;DHT22;3600;48.568;7.870;2023-03-14T13:55:44;10.90;94.90
7117;DHT22;3600;48.568;7.870;2023-03-14T13:58:24;10.90;95.40
7117;DHT22;3600;48.568;7.870;2023-03-14T14:01:03;11.00;95.40
7117;DHT22;3600;48.568;7.870;2023-03-14T14:03:33;11.10;96.30
7117;DHT22;3600;48.568;7.870;2023-03-14T14:06:01;11.00;95.30
7117;DHT22;3600;48.568;7.870;2023-03-14T14:08:27;11.10;96.20
7117;DHT22;3600;48.568;7.870;2023-03-14T14:10:58;11.00;96.00
7117;DHT22;3600;48.568;7.870;2023-03-14T14:13:29;10.90;96.70
7117;DHT22;3600;48.568;7.870;2023-03-14T14:15:59;10.90;96.70
7117;DHT22;3600;48.568;7.870;2023-03-14T14:18:28;10.80;95.60
7117;DHT22;3600;48.568;7.870;2023-03-14T14:20:55;10.80;96.10
7117;DHT22;3600;48.568;7.870;2023-03-14T14:23:25;10.90;96.50
7117;DHT22;3600;48.568;7.870;2023-03-14T14:25:56;10.80;95.80
7117;DHT22;3600;48.568;7.870;2023-03-14T14:28:31;10.70;96.00
7117;DHT22;3600;48.568;7.870;2023-03-14T14:31:00;10.70;96.10
7117;DHT22;3600;48.568;7.870;2023-03-14T14:33:27;10.60;95.50
7117;DHT22;3600;48.568;7.870;2023-03-14T14:35:59;10.60;95.70
7117;DHT22;3600;48.568;7.870;2023-03-14T14:38:28;10.60;96.20
7117;DHT22;3600;48.568;7.870;2023-03-14T14:41:01;10.50;95.80
7117;DHT22;3600;48.568;7.870;2023-03-14T14:43:31;10.50;95.40
7117;DHT22;3600;48.568;7.870;2023-03-14T14:46:00;10.40;95.80
7117;DHT22;3600;48.568;7.870;2023-03-14T14:48:27;10.50;95.80
7117;DHT22;3600;48.568;7.870;2023-03-14T14:51:02;10.60;96.10
7117;DHT22;3600;48.568;7.870;2023-03-14T14:53:42;10.80;96.40
7117;DHT22;3600;48.568;7.870;2023-03-14T14:56:18;10.80;96.60
7117;DHT22;3600;48.568;7.870;2023-03-14T14:58:49;10.80;96.90
7117;DHT22;3600;48.568;7.870;2023-03-14T15:01:24;10.70;97.20
7117;DHT22;3600;48.568;7.870;2023-03-14T15:03:52;10.60;97.60
7117;DHT22;3600;48.568;7.870;2023-03-14T15:06:20;10.50;97.60
7117;DHT22;3600;48.568;7.870;2023-03-14T15:08:48;10.50;98.10
7117;DHT22;3600;48.568;7.870;2023-03-14T15:11:23;10.50;98.10
7117;DHT22;3600;48.568;7.870;2023-03-14T15:13:51;10.50;98.50
7117;DHT22;3600;48.568;7.870;2023-03-14T15:16:29;10.50;98.40
7117;DHT22;3600;48.568;7.870;2023-03-14T15:19:00;10.50;98.50
7117;DHT22;3600;48.568;7.870;2023-03-14T15:21:32;10.40;98.30
7117;DHT22;3600;48.568;7.870;2023-03-14T15:23:59;10.40;98.30
7117;DHT22;3600;48.568;7.870;2023-03-14T15:26:27;10.30;98.30
7117;DHT22;3600;48.568;7.870;2023-03-14T15:28:54;10.30;98.20
7117;DHT22;3600;48.568;7.870;2023-03-14T15:31:21;10.30;98.20
7117;DHT22;3600;48.568;7.870;2023-03-14T15:33:48;10.20;98.60
7117;DHT22;3600;48.568;7.870;2023-03-14T15:36:25;10.20;99.10
7117;DHT22;3600;48.568;7.870;2023-03-14T15:38:54;10.10;99.90
7117;DHT22;3600;48.568;7.870;2023-03-14T15:41:22;10.00;99.90
7117;DHT22;3600;48.568;7.870;2023-03-14T15:43:49;9.90;99.90
7117;DHT22;3600;48.568;7.870;2023-03-14T15:46:17;9.70;99.90
7117;DHT22;3600;48.568;7.870;2023-03-14T15:48:45;9.70;99.90
7117;DHT22;3600;48.568;7.870;2023-03-14T15:51:12;9.40;99.90
7117;DHT22;3600;48.568;7.870;2023-03-14T15:53:39;9.30;99.90
7117;DHT22;3600;48.568;7.870;2023-03-14T15:56:07;9.10;99.90
7117;DHT22;3600;48.568;7.870;2023-03-14T15:58:37;9.10;99.90
7117;DHT22;3600;48.568;7.870;2023-03-14T16:01:07;8.90;99.90
7117;DHT22;3600;48.568;7.870;2023-03-14T16:03:35;8.80;99.90
7117;DHT22;3600;48.568;7.870;2023-03-14T16:06:03;8.80;99.90
7117;DHT22;3600;48.568;7.870;2023-03-14T16:08:30;8.80;99.90
7117;DHT22;3600;48.568;7.870;2023-03-14T16:11:00;8.70;99.90
7117;DHT22;3600;48.568;7.870;2023-03-14T16:13:27;8.80;99.90
7117;DHT22;3600;48.568;7.870;2023-03-14T16:15:56;8.70;99.90
7117;DHT22;3600;48.568;7.870;2023-03-14T16:18:23;8.80;99.90
7117;DHT22;3600;48.568;7.870;2023-03-14T16:20:54;8.80;99.90
7117;DHT22;3600;48.568;7.870;2023-03-14T16:23:22;8.80;99.90
7117;DHT22;3600;48.568;7.870;2023-03-14T16:25:49;8.80;99.90
7117;DHT22;3600;48.568;7.870;2023-03-14T16:28:16;8.80;99.90
7117;DHT22;3600;48.568;7.870;2023-03-14T16:30:43;8.90;99.90
7117;DHT22;3600;48.568;7.870;2023-03-14T16:33:16;8.80;99.90
7117;DHT22;3600;48.568;7.870;2023-03-14T16:35:56;8.90;99.90
7117;DHT22;3600;48.568;7.870;2023-03-14T16:38:23;8.90;99.90
7117;DHT22;3600;48.568;7.870;2023-03-14T16:41:04;9.00;99.90
7117;DHT22;3600;48.568;7.870;2023-03-14T16:43:31;9.10;99.90
7117;DHT22;3600;48.568;7.870;2023-03-14T16:46:07;9.00;99.90
7117;DHT22;3600;48.568;7.870;2023-03-14T16:48:34;9.00;99.90
7117;DHT22;3600;48.568;7.870;2023-03-14T16:51:01;8.90;99.90
7117;DHT22;3600;48.568;7.870;2023-03-14T16:53:27;8.80;99.90
7117;DHT22;3600;48.568;7.870;2023-03-14T16:55:55;8.80;99.90
7117;DHT22;3600;48.568;7.870;2023-03-14T16:58:22;8.80;99.90
7117;DHT22;3600;48.568;7.870;2023-03-14T17:00:48;8.70;99.90
7117;DHT22;3600;48.568;7.870;2023-03-14T17:03:16;8.80;99.90
7117;DHT22;3600;48.568;7.870;2023-03-14T17:05:45;8.70;99.90